33PN weather

Skepton Heliport
Pennsburg, Pennsylvania, United States

Public forecast

Using degrees Fahrenheit for public forecast. Weather courtesy of forecast.io.

METAR (pilot weather report)

Closest report is Quakertown Airport, 3.8 nm (7.0 km) NE. Retrieved 2019/07/18 02:40 UTC (0 seconds ago):

KUKT 180240Z AUTO 00000KT 10SM OVC007 23/23 A2992 RMK A01

TAF (pilot weather forecast)

Forecast is more than 12 hours old.

Closest forecast is Lehigh Valley International Airport, 15.8 nm (29.3 km) N. Retrieved 2019/07/17 00:24 UTC (1 day ago):

TAF KABE 172323Z 1800/1824 VRB03KT P6SM SHRA OVC070 TEMPO 1800/1803 VRB20G30KT 3SM +TSRA OVC025CB FM180300 20006KT 6SM BR OVC040 FM180700 VRB04KT 5SM BR OVC030 FM181300 VRB03KT P6SM VCSH OVC015 FM181600 VRB03KT 6SM SHRA BKN020 FM182100 VRB03KT 6SM SHRA BKN045